Terminal Aerodrome Forecast
Issued by NWS

Home | Current Version | Previous Version | Text Only | Print | Product List | Glossary On
Versions: 1 2 3 4 5 6 7 8 9 10 11 12 13 14 15 16 17 18 19 20
000
FTUS41 KGYX 251519 AAC
TAFRKD
TAF AMD
KRKD 251519Z 2515/2612 03008KT P6SM FEW025 BKN050 OVC100
     FM251700 04008KT P6SM BKN050
     FM260000 00000KT P6SM SCT090
      AMD LTD TO CLD VIS AND WIND=

USA.gov is the U.S. government's official web portal to all federal, state and local government web resources and services.